createdAt,value
2019-03-04T00:02:07.633Z,8.00
2019-03-04T00:04:39.702Z,7.94
2019-03-04T00:07:11.554Z,7.92
2019-03-04T00:09:44.055Z,7.94
2019-03-04T00:12:15.942Z,7.96
2019-03-04T00:14:47.948Z,8.00
2019-03-04T00:17:19.875Z,8.01
2019-03-04T00:19:51.758Z,7.94
2019-03-04T00:22:24.731Z,7.99
2019-03-04T00:24:56.683Z,8.00
2019-03-04T00:27:28.556Z,7.95
2019-03-04T00:30:00.522Z,8.00
2019-03-04T00:32:32.744Z,7.96
2019-03-04T00:35:05.007Z,8.01
2019-03-04T00:37:36.771Z,8.02
2019-03-04T00:40:10.449Z,8.11
2019-03-04T00:42:42.212Z,8.03
2019-03-04T00:45:14.193Z,8.10
2019-03-04T00:47:45.960Z,8.07
2019-03-04T00:50:18.124Z,7.99
2019-03-04T00:52:49.903Z,7.97
2019-03-04T00:55:21.953Z,8.02
2019-03-04T00:57:53.739Z,7.98
2019-03-04T01:00:26.263Z,8.04
2019-03-04T01:02:58.030Z,8.02
2019-03-04T01:05:29.905Z,8.09
2019-03-04T01:08:01.644Z,8.03
2019-03-04T01:10:33.827Z,8.00
2019-03-04T01:13:05.915Z,8.01
2019-03-04T01:15:38.050Z,7.96
2019-03-04T01:18:09.798Z,7.91
2019-03-04T01:20:41.865Z,7.91
2019-03-04T01:23:13.605Z,7.89
2019-03-04T01:25:45.449Z,7.93
2019-03-04T01:28:17.252Z,7.95
2019-03-04T01:30:49.321Z,7.96
2019-03-04T01:33:21.253Z,8.01
2019-03-04T01:35:53.342Z,7.94
2019-03-04T01:38:25.120Z,7.96
2019-03-04T01:40:57.175Z,8.03
2019-03-04T01:43:28.954Z,8.07
2019-03-04T01:46:01.002Z,7.98
2019-03-04T01:48:32.769Z,7.97
2019-03-04T01:51:04.750Z,8.02
2019-03-04T01:53:36.516Z,8.05
2019-03-04T01:56:08.665Z,8.05
2019-03-04T01:58:40.453Z,7.97
2019-03-04T02:01:12.245Z,7.95
2019-03-04T02:03:44.001Z,7.98
2019-03-04T02:06:16.003Z,8.00
2019-03-04T02:08:47.763Z,7.99
2019-03-04T02:11:19.935Z,7.97
2019-03-04T02:13:51.741Z,7.93
2019-03-04T02:16:23.847Z,7.93
2019-03-04T02:18:55.604Z,7.95
2019-03-04T02:21:27.786Z,7.91
2019-03-04T02:24:19.162Z,7.97
2019-03-04T02:26:51.276Z,7.95
2019-03-04T02:29:23.088Z,8.03
2019-03-04T02:31:55.088Z,8.03
2019-03-04T02:34:26.830Z,8.04
2019-03-04T02:36:58.918Z,8.10
2019-03-04T02:39:30.723Z,8.02
2019-03-04T02:42:02.892Z,8.08
2019-03-04T02:44:34.722Z,8.05
2019-03-04T02:47:06.754Z,8.09
2019-03-04T02:49:38.522Z,8.12
2019-03-04T02:52:10.588Z,8.13
2019-03-04T02:54:42.320Z,8.10
2019-03-04T02:57:14.338Z,8.14
2019-03-04T02:59:46.089Z,8.14
2019-03-04T03:02:17.891Z,8.12
2019-03-04T03:04:49.658Z,8.11
2019-03-04T03:07:22.799Z,8.15
2019-03-04T03:09:55.875Z,8.13
2019-03-04T03:12:28.455Z,8.07
2019-03-04T03:15:00.451Z,8.11
2019-03-04T03:17:32.907Z,8.17
2019-03-04T03:20:04.868Z,8.14
2019-03-04T03:22:36.925Z,8.16
2019-03-04T03:25:09.218Z,8.13
2019-03-04T03:27:41.321Z,8.13
2019-03-04T03:30:13.394Z,8.13
2019-03-04T03:32:45.215Z,8.18
2019-03-04T03:35:17.055Z,8.14
2019-03-04T03:37:48.886Z,8.19
2019-03-04T03:40:20.785Z,8.17
2019-03-04T03:42:52.623Z,8.20
2019-03-04T03:45:24.349Z,8.17
2019-03-04T03:47:56.216Z,8.19
2019-03-04T03:50:27.946Z,8.21
2019-03-04T03:53:00.089Z,8.17
2019-03-04T03:55:32.793Z,8.20
2019-03-04T03:58:05.023Z,8.20
2019-03-04T04:00:36.759Z,8.12
2019-03-04T04:03:08.852Z,8.12
2019-03-04T04:05:40.580Z,8.17
2019-03-04T04:08:12.355Z,8.22
2019-03-04T04:10:44.101Z,8.16
2019-03-04T04:13:16.361Z,8.17
2019-03-04T04:15:48.211Z,8.22
2019-03-04T04:18:20.321Z,8.22
2019-03-04T04:20:52.139Z,8.26
2019-03-04T04:23:24.253Z,8.22
2019-03-04T04:25:56.024Z,8.24
2019-03-04T04:28:28.717Z,8.30
2019-03-04T04:31:00.609Z,8.29
2019-03-04T04:33:32.619Z,8.33
2019-03-04T04:36:04.441Z,8.45
2019-03-04T04:38:36.249Z,8.31
2019-03-04T04:41:08.039Z,8.35
2019-03-04T04:43:39.790Z,8.39
2019-03-04T04:46:11.579Z,8.41
2019-03-04T04:48:44.373Z,8.41
2019-03-04T04:51:16.148Z,8.38
2019-03-04T04:53:48.080Z,8.39
2019-03-04T04:56:19.852Z,8.41
2019-03-04T04:58:52.051Z,8.46
2019-03-04T05:01:23.772Z,8.45
2019-03-04T05:03:55.765Z,8.53
2019-03-04T05:06:27.534Z,8.53
2019-03-04T05:08:59.801Z,8.52
2019-03-04T05:11:31.625Z,8.59
2019-03-04T05:14:04.033Z,8.62
2019-03-04T05:16:35.800Z,8.48
2019-03-04T05:19:07.864Z,8.57
2019-03-04T05:21:39.616Z,8.57
2019-03-04T05:24:11.624Z,8.60
2019-03-04T05:26:43.354Z,8.56
2019-03-04T05:29:15.454Z,8.63
2019-03-04T05:31:47.198Z,8.62
2019-03-04T05:34:19.237Z,8.67
2019-03-04T05:36:50.989Z,8.65
2019-03-04T05:39:22.926Z,8.59
2019-03-04T05:41:54.704Z,8.61
2019-03-04T05:44:26.899Z,8.61
2019-03-04T05:46:58.665Z,8.49
2019-03-04T05:49:30.557Z,8.53
2019-03-04T05:52:02.342Z,8.48
2019-03-04T05:54:34.534Z,8.54
2019-03-04T05:57:06.415Z,8.59
2019-03-04T05:59:39.036Z,8.63
2019-03-04T06:02:12.384Z,8.59
2019-03-04T06:04:47.099Z,8.66
2019-03-04T06:07:37.697Z,8.72
2019-03-04T06:10:13.063Z,8.66
2019-03-04T06:12:44.847Z,8.71
2019-03-04T06:15:19.438Z,8.75
2019-03-04T06:17:51.333Z,8.77
2019-03-04T06:20:23.455Z,8.77
2019-03-04T06:22:55.265Z,8.89
2019-03-04T06:25:28.728Z,8.89
2019-03-04T06:28:01.757Z,8.91
2019-03-04T06:30:34.172Z,8.90
2019-03-04T06:33:06.013Z,8.92
2019-03-04T06:35:37.890Z,8.92
2019-03-04T06:38:09.700Z,8.96
2019-03-04T06:40:41.861Z,8.94
2019-03-04T06:43:13.649Z,9.02
2019-03-04T06:45:46.067Z,8.99
2019-03-04T06:48:17.905Z,9.04
2019-03-04T06:50:52.552Z,9.08
2019-03-04T06:53:53.111Z,9.10
2019-03-04T06:57:00.025Z,9.20
2019-03-04T07:00:37.046Z,9.22
2019-03-04T07:03:23.116Z,9.24
2019-03-04T07:05:55.572Z,9.25
2019-03-04T07:09:16.603Z,9.33
2019-03-04T07:11:53.027Z,9.31
2019-03-04T07:14:25.191Z,9.34
2019-03-04T07:16:57.127Z,9.35
2019-03-04T07:19:35.052Z,9.42
2019-03-04T07:22:06.921Z,9.45
2019-03-04T07:24:38.994Z,9.52
2019-03-04T07:27:10.789Z,9.46
2019-03-04T07:29:42.920Z,9.53
2019-03-04T07:32:14.700Z,9.62
2019-03-04T07:34:46.877Z,9.72
2019-03-04T07:37:18.789Z,9.74
2019-03-04T07:39:50.856Z,9.78
2019-03-04T07:42:22.655Z,9.77
2019-03-04T07:44:54.597Z,9.90
2019-03-04T07:47:26.351Z,10.03
2019-03-04T07:49:58.511Z,10.06
2019-03-04T07:52:30.310Z,10.08
2019-03-04T07:55:02.243Z,10.13
2019-03-04T07:57:34.063Z,10.14
2019-03-04T08:00:06.952Z,10.16
2019-03-04T08:02:38.830Z,10.23
2019-03-04T08:05:11.808Z,10.37
2019-03-04T08:07:50.091Z,10.58
2019-03-04T08:11:21.817Z,10.88
2019-03-04T08:13:59.260Z,10.97
2019-03-04T08:16:31.365Z,11.09
2019-03-04T08:19:03.279Z,11.19
2019-03-04T08:21:35.456Z,11.45
2019-03-04T08:24:07.285Z,11.66
2019-03-04T08:26:39.868Z,11.73
2019-03-04T08:29:12.216Z,11.84
2019-03-04T08:31:45.558Z,11.82
2019-03-04T08:34:17.427Z,12.07
2019-03-04T08:36:49.800Z,12.07
2019-03-04T08:39:23.005Z,12.11
2019-03-04T08:41:55.081Z,12.21
2019-03-04T08:44:26.868Z,12.25
2019-03-04T08:46:58.812Z,12.18
2019-03-04T08:49:30.639Z,12.30
2019-03-04T08:52:02.812Z,12.30
2019-03-04T08:54:34.636Z,12.51
2019-03-04T08:57:06.975Z,12.39
2019-03-04T08:59:38.984Z,12.73
2019-03-04T09:02:11.457Z,12.68
2019-03-04T09:04:43.982Z,12.89
2019-03-04T09:07:16.190Z,12.62
2019-03-04T09:09:48.026Z,12.67
2019-03-04T09:12:20.109Z,12.81
2019-03-04T09:14:52.169Z,12.83
2019-03-04T09:17:25.416Z,12.71
2019-03-04T09:19:57.433Z,12.74
2019-03-04T09:22:29.903Z,12.95
2019-03-04T09:25:02.072Z,13.09
2019-03-04T09:27:34.110Z,13.16
2019-03-04T09:30:07.355Z,13.27
2019-03-04T09:32:39.861Z,13.21
2019-03-04T09:35:14.560Z,13.55
2019-03-04T09:37:47.104Z,13.43
2019-03-04T09:40:19.020Z,13.50
2019-03-04T09:42:50.973Z,13.53
2019-03-04T09:45:24.066Z,13.79
2019-03-04T09:47:56.406Z,13.86
2019-03-04T09:50:28.193Z,13.60
2019-03-04T09:53:00.721Z,13.47
2019-03-04T09:55:32.589Z,13.74
2019-03-04T09:58:04.554Z,13.79
2019-03-04T10:00:40.655Z,13.91
2019-03-04T10:04:04.697Z,14.14
2019-03-04T10:07:28.827Z,14.07
2019-03-04T10:10:44.880Z,14.04
2019-03-04T10:14:06.423Z,14.27
2019-03-04T10:17:02.184Z,14.14
2019-03-04T10:20:16.363Z,13.96
2019-03-04T10:23:56.109Z,14.16
2019-03-04T10:27:35.859Z,14.48
2019-03-04T10:30:41.514Z,14.34
2019-03-04T10:34:32.058Z,14.52
2019-03-04T10:37:51.794Z,14.71
2019-03-04T10:41:01.027Z,14.66
2019-03-04T10:44:42.990Z,14.79
2019-03-04T10:47:14.748Z,14.43
2019-03-04T10:49:46.830Z,14.60
2019-03-04T10:52:18.974Z,14.63
2019-03-04T10:54:51.056Z,14.65
2019-03-04T10:57:22.865Z,14.56
2019-03-04T10:59:54.974Z,14.64
2019-03-04T11:02:26.779Z,14.81
2019-03-04T11:04:58.809Z,14.97
2019-03-04T11:07:30.641Z,15.02
2019-03-04T11:10:02.935Z,14.89
2019-03-04T11:12:35.138Z,14.94
2019-03-04T11:15:18.063Z,14.85
2019-03-04T11:17:49.928Z,14.95
2019-03-04T11:20:21.898Z,14.85
2019-03-04T11:22:53.742Z,15.11
2019-03-04T11:25:25.795Z,15.10
2019-03-04T11:27:57.783Z,15.26
2019-03-04T11:30:31.245Z,15.27
2019-03-04T11:33:03.186Z,15.21
2019-03-04T11:35:35.477Z,15.30
2019-03-04T11:38:23.982Z,15.34
2019-03-04T11:40:56.029Z,15.34
2019-03-04T11:43:27.891Z,15.52
2019-03-04T11:46:00.012Z,15.32
2019-03-04T11:48:31.788Z,15.31
2019-03-04T11:51:03.838Z,15.31
2019-03-04T11:53:35.698Z,15.29
2019-03-04T11:56:08.166Z,15.16
2019-03-04T11:58:40.193Z,15.01
2019-03-04T12:01:31.083Z,14.98
2019-03-04T12:04:02.933Z,14.89
2019-03-04T12:06:35.809Z,14.91
2019-03-04T12:09:15.571Z,14.84
2019-03-04T12:11:47.447Z,14.91
2019-03-04T12:14:19.295Z,14.77
2019-03-04T12:16:51.325Z,14.79
2019-03-04T12:19:23.298Z,15.00
2019-03-04T12:21:55.364Z,15.08
2019-03-04T12:24:27.228Z,15.27
2019-03-04T12:26:59.705Z,15.56
2019-03-04T12:29:31.604Z,15.93
2019-03-04T12:32:25.080Z,16.37
2019-03-04T12:34:56.887Z,16.48
2019-03-04T12:37:28.854Z,16.19
2019-03-04T12:40:00.678Z,15.81
2019-03-04T12:51:23.244Z,16.79
2019-03-04T12:53:52.053Z,16.44
2019-03-04T12:56:24.078Z,16.24
2019-03-04T12:58:56.187Z,16.05
2019-03-04T13:01:28.265Z,16.25
2019-03-04T13:04:00.082Z,16.11
2019-03-04T13:06:32.078Z,16.22
2019-03-04T13:09:14.220Z,16.15
2019-03-04T13:11:41.102Z,16.03
2019-03-04T13:14:13.214Z,15.84
2019-03-04T13:16:45.138Z,15.70
2019-03-04T13:19:17.381Z,15.69
2019-03-04T13:21:49.440Z,15.61
2019-03-04T13:24:21.310Z,15.56
2019-03-04T13:26:53.281Z,15.58
2019-03-04T13:29:25.705Z,15.60
2019-03-04T13:31:57.709Z,15.70
2019-03-04T13:34:29.478Z,15.89
2019-03-04T13:37:01.540Z,15.98
2019-03-04T13:39:33.366Z,16.23
2019-03-04T13:42:05.964Z,16.33
2019-03-04T13:44:37.747Z,16.41
2019-03-04T13:47:09.658Z,16.15
2019-03-04T13:49:41.595Z,16.29
2019-03-04T13:52:15.069Z,16.03
2019-03-04T13:54:46.857Z,16.21
2019-03-04T13:57:19.085Z,15.93
2019-03-04T13:59:51.133Z,16.04
2019-03-04T14:02:23.101Z,16.14
2019-03-04T14:04:54.953Z,17.19
2019-03-04T14:07:27.142Z,17.37
2019-03-04T14:09:59.028Z,16.71
2019-03-04T14:12:31.091Z,16.28
2019-03-04T14:15:03.303Z,16.01
2019-03-04T14:17:36.429Z,16.00
2019-03-04T14:20:09.507Z,15.82
2019-03-04T14:22:41.371Z,15.76
2019-03-04T14:25:13.412Z,15.75
2019-03-04T14:27:45.506Z,15.78
2019-03-04T14:30:18.320Z,15.83
2019-03-04T14:32:50.476Z,16.05
2019-03-04T14:35:22.456Z,16.28
2019-03-04T14:37:54.557Z,17.13
2019-03-04T14:40:26.369Z,17.39
2019-03-04T14:42:58.433Z,18.94
2019-03-04T14:45:30.555Z,18.59
2019-03-04T14:48:02.775Z,18.22
2019-03-04T14:50:34.619Z,17.04
2019-03-04T14:53:06.786Z,16.48
2019-03-04T14:55:38.740Z,15.99
2019-03-04T14:58:10.648Z,15.92
2019-03-04T15:00:44.112Z,15.67
2019-03-04T15:03:23.227Z,15.61
2019-03-04T15:05:49.800Z,15.51
2019-03-04T15:08:21.968Z,15.46
2019-03-04T15:10:53.999Z,15.45
2019-03-04T15:13:26.317Z,15.45
2019-03-04T15:16:01.445Z,15.37
2019-03-04T15:18:32.173Z,15.32
2019-03-04T15:21:04.432Z,15.33
2019-03-04T15:23:36.715Z,15.28
2019-03-04T15:26:08.609Z,15.30
2019-03-04T15:28:40.858Z,15.38
2019-03-04T15:31:13.030Z,15.42
2019-03-04T15:33:45.309Z,15.42
2019-03-04T15:36:17.280Z,15.46
2019-03-04T15:38:49.355Z,15.42
2019-03-04T15:41:22.456Z,15.45
2019-03-04T15:43:54.679Z,15.32
2019-03-04T15:46:26.832Z,15.37
2019-03-04T15:48:59.039Z,15.36
2019-03-04T15:51:30.964Z,15.44
2019-03-04T15:54:03.030Z,15.38
2019-03-04T15:56:35.554Z,15.34
2019-03-04T15:59:08.306Z,15.29
2019-03-04T16:01:41.728Z,15.34
2019-03-04T16:04:16.440Z,15.40
2019-03-04T16:06:48.206Z,15.30
2019-03-04T16:09:23.162Z,15.29
2019-03-04T16:11:54.929Z,15.23
2019-03-04T16:14:26.882Z,15.15
2019-03-04T16:16:58.728Z,15.05
2019-03-04T16:19:30.878Z,15.03
2019-03-04T16:22:02.800Z,15.00
2019-03-04T16:24:34.899Z,15.01
2019-03-04T16:27:13.829Z,14.93
2019-03-04T16:29:45.753Z,14.85
2019-03-04T16:32:17.522Z,14.84
2019-03-04T16:34:49.422Z,14.74
2019-03-04T16:37:21.422Z,14.68
2019-03-04T16:39:53.627Z,14.67
2019-03-04T16:42:25.418Z,14.63
2019-03-04T16:44:57.304Z,14.52
2019-03-04T16:47:29.329Z,14.55
2019-03-04T16:50:01.497Z,14.45
2019-03-04T16:52:33.747Z,14.45
2019-03-04T16:55:05.940Z,14.40
2019-03-04T16:57:37.887Z,14.28
2019-03-04T17:00:14.209Z,14.26
2019-03-04T17:02:46.485Z,14.20
2019-03-04T17:05:20.302Z,14.16
2019-03-04T17:07:52.488Z,14.11
2019-03-04T17:10:25.279Z,14.03
2019-03-04T17:12:58.011Z,14.01
2019-03-04T17:15:30.484Z,14.05
2019-03-04T17:18:02.739Z,14.02
2019-03-04T17:20:35.005Z,14.00
2019-03-04T17:23:07.764Z,13.88
2019-03-04T17:25:40.229Z,13.91
2019-03-04T17:28:12.529Z,13.92
2019-03-04T17:30:44.662Z,13.90
2019-03-04T17:33:18.291Z,13.89
2019-03-04T17:35:50.783Z,13.81
2019-03-04T17:38:23.141Z,13.80
2019-03-04T17:40:55.905Z,13.81
2019-03-04T17:43:28.057Z,13.82
2019-03-04T17:46:00.390Z,13.87
2019-03-04T17:48:33.632Z,13.95
2019-03-04T17:51:06.288Z,13.94
2019-03-04T17:53:39.069Z,14.02
2019-03-04T17:56:11.907Z,14.04
2019-03-04T17:58:45.123Z,14.11
2019-03-04T18:01:19.177Z,14.14
2019-03-04T18:03:52.119Z,14.21
2019-03-04T18:06:25.830Z,14.24
2019-03-04T18:08:58.691Z,14.41
2019-03-04T18:11:31.886Z,14.41
2019-03-04T18:14:05.196Z,14.44
2019-03-04T18:16:37.958Z,14.50
2019-03-04T18:19:11.389Z,14.55
2019-03-04T18:21:44.113Z,14.57
2019-03-04T18:24:16.897Z,14.61
2019-03-04T18:26:57.820Z,14.62
2019-03-04T18:30:32.651Z,14.64
2019-03-04T18:34:16.277Z,14.73
2019-03-04T18:37:41.625Z,14.72
2019-03-04T18:41:31.201Z,14.74
2019-03-04T18:45:03.121Z,14.89
2019-03-04T18:48:26.177Z,14.86
2019-03-04T18:50:58.818Z,14.85
2019-03-04T18:53:32.220Z,14.85
2019-03-04T18:56:05.234Z,14.84
2019-03-04T18:58:37.473Z,14.88
2019-03-04T19:01:10.454Z,14.88
2019-03-04T19:03:42.825Z,14.81
2019-03-04T19:06:16.212Z,14.77
2019-03-04T19:08:48.859Z,14.76
2019-03-04T19:11:20.899Z,14.76
2019-03-04T19:13:53.268Z,14.70
2019-03-04T19:16:25.538Z,14.69
2019-03-04T19:18:57.862Z,14.68
2019-03-04T19:21:30.038Z,14.69
2019-03-04T19:24:02.734Z,14.63
2019-03-04T19:26:35.038Z,14.64
2019-03-04T19:29:07.765Z,14.58
2019-03-04T19:31:41.010Z,14.46
2019-03-04T19:34:13.933Z,14.46
2019-03-04T19:36:46.508Z,14.42
2019-03-04T19:39:19.949Z,14.44
2019-03-04T19:41:52.228Z,14.45
2019-03-04T19:44:24.577Z,14.40
2019-03-04T19:46:56.849Z,14.39
2019-03-04T19:49:29.500Z,14.31
2019-03-04T19:52:01.907Z,14.33
2019-03-04T19:54:34.378Z,14.37
2019-03-04T19:57:06.587Z,14.33
2019-03-04T19:59:38.763Z,14.25
2019-03-04T20:02:11.920Z,14.24
2019-03-04T20:04:45.437Z,14.25
2019-03-04T20:07:17.880Z,14.19
2019-03-04T20:09:50.273Z,14.09
2019-03-04T20:12:22.499Z,14.07
2019-03-04T20:14:54.803Z,14.01
2019-03-04T20:17:27.858Z,13.99
2019-03-04T20:19:59.985Z,14.00
2019-03-04T20:22:32.094Z,13.96
2019-03-04T20:25:04.931Z,13.94
2019-03-04T20:27:37.353Z,13.90
2019-03-04T20:30:10.972Z,13.80
2019-03-04T20:32:43.350Z,13.76
2019-03-04T20:35:16.832Z,13.78
2019-03-04T20:37:51.858Z,13.76
2019-03-04T20:40:25.022Z,13.76
2019-03-04T20:42:57.908Z,13.77
2019-03-04T20:45:30.566Z,13.72
2019-03-04T20:48:02.645Z,13.71
2019-03-04T20:50:34.726Z,13.64
2019-03-04T20:53:06.911Z,13.55
2019-03-04T20:55:38.976Z,13.56
2019-03-04T20:58:10.911Z,13.56
2019-03-04T21:00:43.653Z,13.56
2019-03-04T21:03:15.838Z,13.48
2019-03-04T21:05:48.092Z,13.44
2019-03-04T21:08:20.377Z,13.38
2019-03-04T21:10:52.640Z,13.39
2019-03-04T21:13:35.077Z,13.39
2019-03-04T21:16:00.677Z,13.33
2019-03-04T21:18:32.740Z,13.35
2019-03-04T21:21:06.444Z,13.35
2019-03-04T21:23:40.491Z,13.29
2019-03-04T21:26:24.509Z,13.14
2019-03-04T21:29:49.946Z,13.18
2019-03-04T21:33:09.402Z,13.20
2019-03-04T21:36:34.195Z,13.18
2019-03-04T21:39:08.196Z,13.12
2019-03-04T21:42:22.852Z,13.06
2019-03-04T21:45:42.059Z,13.07
2019-03-04T21:48:32.644Z,12.98
2019-03-04T21:51:38.452Z,12.92
2019-03-04T21:54:10.856Z,12.91
2019-03-04T21:57:25.479Z,12.85
2019-03-04T21:59:57.677Z,12.77
2019-03-04T22:02:58.579Z,12.59
2019-03-04T22:05:30.806Z,12.44
2019-03-04T22:08:02.940Z,12.41
2019-03-04T22:10:35.251Z,12.46
2019-03-04T22:13:07.706Z,12.53
2019-03-04T22:15:39.576Z,12.51
2019-03-04T22:18:13.100Z,12.48
2019-03-04T22:20:46.089Z,12.52
2019-03-04T22:23:18.229Z,12.55
2019-03-04T22:26:01.305Z,12.46
2019-03-04T22:28:24.118Z,12.53
2019-03-04T22:30:55.904Z,12.51
2019-03-04T22:33:27.813Z,12.44
2019-03-04T22:35:59.671Z,12.40
2019-03-04T22:38:31.875Z,12.40
2019-03-04T22:41:04.079Z,12.31
2019-03-04T22:43:35.962Z,12.34
2019-03-04T22:46:07.839Z,12.30
2019-03-04T22:48:39.747Z,12.21
2019-03-04T22:51:11.650Z,12.19
2019-03-04T22:53:43.767Z,12.07
2019-03-04T22:56:15.893Z,12.03
2019-03-04T22:58:47.970Z,12.03
2019-03-04T23:01:59.480Z,11.89
2019-03-04T23:05:13.940Z,11.88
2019-03-04T23:07:52.985Z,11.78
2019-03-04T23:10:49.785Z,11.68
2019-03-04T23:14:06.846Z,11.62
2019-03-04T23:16:39.100Z,11.56
2019-03-04T23:19:11.025Z,11.46
2019-03-04T23:21:43.266Z,11.27
2019-03-04T23:24:15.142Z,11.17
2019-03-04T23:26:47.655Z,11.13
2019-03-04T23:29:19.767Z,11.12
2019-03-04T23:31:51.706Z,10.97
2019-03-04T23:34:24.444Z,10.82
2019-03-04T23:36:56.532Z,10.79
2019-03-04T23:39:28.320Z,10.57
2019-03-04T23:42:00.684Z,10.48
2019-03-04T23:44:32.486Z,10.18
2019-03-04T23:47:04.427Z,10.22
2019-03-04T23:49:36.268Z,10.21
2019-03-04T23:52:08.193Z,10.20
2019-03-04T23:54:39.979Z,10.09
2019-03-04T23:57:12.217Z,9.89
2019-03-04T23:59:44.225Z,9.65
